METAR Data
IDs: Format: Raw Decoded Include TAF

Data at: 0238 UTC 27 Jun 2019

METAR for:KAUS (Austin/Bergstrom Int, TX, US)
Text:KAUS 270153Z 09005KT 10SM FEW150 FEW200 28/23 A3007 RMK AO2 SLP174 T02780228
Temperature: 27.8°C ( 82°F)
Dewpoint: 22.8°C ( 73°F) [RH = 74%]
Pressure (altimeter):30.07 inches Hg (1018.4 mb) [Sea level pressure: 1017.4 mb]
Winds:from the E (90 degrees) at 6 MPH (5 knots; 2.6 m/s)
Visibility:10 or more sm (16+ km)
Ceiling:at least 12,000 feet AGL
Clouds: few clouds at 15000 feet AGL, few clouds at 20000 feet AGL